Patriot, Indiana
Current Conditions -  °F | °C
As of 6:52 AM on Friday 19 Dec 2014 (Local Time) from KCVG Reporting Station
Overcast Overcast  
Wind Chill: -3°   Ceiling: 1500
Heat Index: -3°   Visibility: 8mi
Dew Point: -7°   Wind: 0mph
Humidity: 75%   Direction: NA
Pressure: 30.26"   Gusts: NA
Location:  38.84°N, 84.83°W
Report Text: KCVG 191152Z 00000KT 8SM OVC015 M03/M07 A3026 RMK AO2 SLP254 T10281067 11022 21039 53008
Loading
Personal Weather Stations






























Interactive Weather Map New forecast layout! Learn more

10-Day Weather Forecast

Advertisements
Track Severe Weather on mobile